sensor_id;sensor_type;location;lat;lon;timestamp;P1;durP1;ratioP1;P2;durP2;ratioP2
11829;SDS011;5972;42.134;24.718;2023-12-20T00:01:57;427.90;;;140.10;;
11829;SDS011;5972;42.134;24.718;2023-12-20T00:04:24;299.30;;;97.57;;
11829;SDS011;5972;42.134;24.718;2023-12-20T00:06:51;28.50;;;16.40;;
11829;SDS011;5972;42.134;24.718;2023-12-20T00:09:18;43.20;;;21.30;;
11829;SDS011;5972;42.134;24.718;2023-12-20T00:11:45;26.80;;;15.87;;
11829;SDS011;5972;42.134;24.718;2023-12-20T00:14:12;27.27;;;16.50;;
11829;SDS011;5972;42.134;24.718;2023-12-20T00:16:39;28.80;;;19.47;;
11829;SDS011;5972;42.134;24.718;2023-12-20T00:19:07;23.50;;;15.30;;
11829;SDS011;5972;42.134;24.718;2023-12-20T00:21:34;21.67;;;13.47;;
11829;SDS011;5972;42.134;24.718;2023-12-20T00:24:01;20.07;;;12.77;;
11829;SDS011;5972;42.134;24.718;2023-12-20T00:26:28;18.50;;;12.13;;
11829;SDS011;5972;42.134;24.718;2023-12-20T00:28:55;17.47;;;10.87;;
11829;SDS011;5972;42.134;24.718;2023-12-20T00:31:22;19.57;;;11.93;;
11829;SDS011;5972;42.134;24.718;2023-12-20T00:33:49;18.50;;;12.90;;
11829;SDS011;5972;42.134;24.718;2023-12-20T00:36:17;18.83;;;12.23;;
11829;SDS011;5972;42.134;24.718;2023-12-20T00:38:44;19.30;;;11.83;;
11829;SDS011;5972;42.134;24.718;2023-12-20T00:41:11;19.27;;;12.47;;
11829;SDS011;5972;42.134;24.718;2023-12-20T00:43:38;22.47;;;14.70;;
11829;SDS011;5972;42.134;24.718;2023-12-20T00:46:05;19.87;;;14.10;;
11829;SDS011;5972;42.134;24.718;2023-12-20T00:48:32;24.40;;;15.00;;
11829;SDS011;5972;42.134;24.718;2023-12-20T00:50:59;22.17;;;14.93;;
11829;SDS011;5972;42.134;24.718;2023-12-20T00:53:27;23.33;;;15.03;;
11829;SDS011;5972;42.134;24.718;2023-12-20T00:55:54;21.73;;;14.60;;
11829;SDS011;5972;42.134;24.718;2023-12-20T00:58:23;26.97;;;17.20;;
11829;SDS011;5972;42.134;24.718;2023-12-20T01:00:51;27.57;;;17.33;;
11829;SDS011;5972;42.134;24.718;2023-12-20T01:03:18;20.37;;;15.67;;
11829;SDS011;5972;42.134;24.718;2023-12-20T01:05:45;25.37;;;16.43;;
11829;SDS011;5972;42.134;24.718;2023-12-20T01:08:12;26.53;;;16.50;;
11829;SDS011;5972;42.134;24.718;2023-12-20T01:10:41;26.97;;;16.43;;
11829;SDS011;5972;42.134;24.718;2023-12-20T01:13:08;27.83;;;15.80;;
11829;SDS011;5972;42.134;24.718;2023-12-20T01:15:35;31.80;;;16.90;;
11829;SDS011;5972;42.134;24.718;2023-12-20T01:18:01;27.77;;;16.37;;
11829;SDS011;5972;42.134;24.718;2023-12-20T01:20:28;21.87;;;14.57;;
11829;SDS011;5972;42.134;24.718;2023-12-20T01:22:55;20.83;;;14.03;;
11829;SDS011;5972;42.134;24.718;2023-12-20T01:25:22;23.87;;;15.53;;
11829;SDS011;5972;42.134;24.718;2023-12-20T01:27:50;22.40;;;14.57;;
11829;SDS011;5972;42.134;24.718;2023-12-20T01:30:17;23.40;;;14.20;;
11829;SDS011;5972;42.134;24.718;2023-12-20T01:32:44;17.87;;;13.50;;
11829;SDS011;5972;42.134;24.718;2023-12-20T01:35:11;19.67;;;13.13;;
11829;SDS011;5972;42.134;24.718;2023-12-20T01:37:38;19.83;;;13.63;;
11829;SDS011;5972;42.134;24.718;2023-12-20T01:40:06;21.07;;;13.53;;
11829;SDS011;5972;42.134;24.718;2023-12-20T01:42:59;20.17;;;14.73;;
11829;SDS011;5972;42.134;24.718;2023-12-20T01:45:26;24.27;;;14.30;;
11829;SDS011;5972;42.134;24.718;2023-12-20T01:47:53;24.90;;;15.90;;
11829;SDS011;5972;42.134;24.718;2023-12-20T01:50:21;25.37;;;15.60;;
11829;SDS011;5972;42.134;24.718;2023-12-20T01:52:48;22.50;;;15.90;;
11829;SDS011;5972;42.134;24.718;2023-12-20T01:55:17;25.77;;;16.67;;
11829;SDS011;5972;42.134;24.718;2023-12-20T01:57:45;25.23;;;15.80;;
11829;SDS011;5972;42.134;24.718;2023-12-20T02:00:15;21.97;;;14.73;;
11829;SDS011;5972;42.134;24.718;2023-12-20T02:02:42;22.77;;;14.07;;
11829;SDS011;5972;42.134;24.718;2023-12-20T02:05:11;21.10;;;14.43;;
11829;SDS011;5972;42.134;24.718;2023-12-20T02:07:39;28.33;;;15.97;;
11829;SDS011;5972;42.134;24.718;2023-12-20T02:10:06;23.47;;;15.77;;
11829;SDS011;5972;42.134;24.718;2023-12-20T02:12:34;22.87;;;15.30;;
11829;SDS011;5972;42.134;24.718;2023-12-20T02:15:01;21.97;;;15.23;;
11829;SDS011;5972;42.134;24.718;2023-12-20T02:17:30;22.70;;;14.90;;
11829;SDS011;5972;42.134;24.718;2023-12-20T02:19:58;20.97;;;14.60;;
11829;SDS011;5972;42.134;24.718;2023-12-20T02:22:26;20.80;;;14.13;;
11829;SDS011;5972;42.134;24.718;2023-12-20T02:24:53;21.67;;;14.73;;
11829;SDS011;5972;42.134;24.718;2023-12-20T02:27:20;16.90;;;12.47;;
11829;SDS011;5972;42.134;24.718;2023-12-20T02:29:49;19.83;;;13.07;;
11829;SDS011;5972;42.134;24.718;2023-12-20T02:32:17;19.20;;;13.23;;
11829;SDS011;5972;42.134;24.718;2023-12-20T02:34:45;17.93;;;12.23;;
11829;SDS011;5972;42.134;24.718;2023-12-20T02:37:13;17.70;;;12.43;;
11829;SDS011;5972;42.134;24.718;2023-12-20T02:39:42;18.20;;;12.60;;
11829;SDS011;5972;42.134;24.718;2023-12-20T02:42:09;19.00;;;11.93;;
11829;SDS011;5972;42.134;24.718;2023-12-20T02:44:36;18.33;;;12.47;;
11829;SDS011;5972;42.134;24.718;2023-12-20T02:47:03;17.57;;;11.60;;
11829;SDS011;5972;42.134;24.718;2023-12-20T02:49:30;16.63;;;12.03;;
11829;SDS011;5972;42.134;24.718;2023-12-20T02:51:57;17.10;;;12.10;;
11829;SDS011;5972;42.134;24.718;2023-12-20T02:54:24;16.97;;;11.63;;
11829;SDS011;5972;42.134;24.718;2023-12-20T02:56:52;15.97;;;11.10;;
11829;SDS011;5972;42.134;24.718;2023-12-20T02:59:19;17.30;;;10.83;;
11829;SDS011;5972;42.134;24.718;2023-12-20T03:01:46;17.43;;;10.97;;
11829;SDS011;5972;42.134;24.718;2023-12-20T03:04:13;17.03;;;11.10;;
11829;SDS011;5972;42.134;24.718;2023-12-20T03:06:40;16.47;;;11.93;;
11829;SDS011;5972;42.134;24.718;2023-12-20T03:09:07;16.23;;;11.47;;
11829;SDS011;5972;42.134;24.718;2023-12-20T03:11:34;18.43;;;11.80;;
11829;SDS011;5972;42.134;24.718;2023-12-20T03:14:02;15.57;;;9.97;;
11829;SDS011;5972;42.134;24.718;2023-12-20T03:16:29;13.57;;;9.23;;
11829;SDS011;5972;42.134;24.718;2023-12-20T03:18:58;23.03;;;10.27;;
11829;SDS011;5972;42.134;24.718;2023-12-20T03:21:25;15.57;;;9.97;;
11829;SDS011;5972;42.134;24.718;2023-12-20T03:23:52;16.47;;;10.33;;
11829;SDS011;5972;42.134;24.718;2023-12-20T03:26:19;18.60;;;11.53;;
11829;SDS011;5972;42.134;24.718;2023-12-20T03:28:47;19.80;;;11.60;;
11829;SDS011;5972;42.134;24.718;2023-12-20T03:31:16;19.37;;;12.87;;
11829;SDS011;5972;42.134;24.718;2023-12-20T03:33:43;16.13;;;11.57;;
11829;SDS011;5972;42.134;24.718;2023-12-20T03:36:10;15.70;;;11.10;;
11829;SDS011;5972;42.134;24.718;2023-12-20T03:38:37;17.57;;;10.20;;
11829;SDS011;5972;42.134;24.718;2023-12-20T03:41:04;14.43;;;10.53;;
11829;SDS011;5972;42.134;24.718;2023-12-20T03:43:31;13.87;;;9.97;;
11829;SDS011;5972;42.134;24.718;2023-12-20T03:45:58;16.57;;;10.07;;
11829;SDS011;5972;42.134;24.718;2023-12-20T03:48:26;12.30;;;9.33;;
11829;SDS011;5972;42.134;24.718;2023-12-20T03:50:53;16.40;;;10.83;;
11829;SDS011;5972;42.134;24.718;2023-12-20T03:53:20;16.60;;;11.03;;
11829;SDS011;5972;42.134;24.718;2023-12-20T03:55:47;18.27;;;11.07;;
11829;SDS011;5972;42.134;24.718;2023-12-20T03:58:14;19.50;;;11.83;;
11829;SDS011;5972;42.134;24.718;2023-12-20T04:00:41;20.70;;;12.57;;
11829;SDS011;5972;42.134;24.718;2023-12-20T04:03:08;18.93;;;12.97;;
11829;SDS011;5972;42.134;24.718;2023-12-20T04:05:39;19.93;;;13.30;;
11829;SDS011;5972;42.134;24.718;2023-12-20T04:08:06;19.10;;;13.93;;
11829;SDS011;5972;42.134;24.718;2023-12-20T04:10:34;20.10;;;12.90;;
11829;SDS011;5972;42.134;24.718;2023-12-20T04:13:02;19.33;;;13.13;;
11829;SDS011;5972;42.134;24.718;2023-12-20T04:15:30;19.60;;;13.67;;
11829;SDS011;5972;42.134;24.718;2023-12-20T04:17:56;21.87;;;14.03;;
11829;SDS011;5972;42.134;24.718;2023-12-20T04:20:23;23.80;;;14.97;;
11829;SDS011;5972;42.134;24.718;2023-12-20T04:22:52;27.77;;;15.00;;
11829;SDS011;5972;42.134;24.718;2023-12-20T04:25:19;22.10;;;14.53;;
11829;SDS011;5972;42.134;24.718;2023-12-20T04:27:46;19.70;;;15.37;;
11829;SDS011;5972;42.134;24.718;2023-12-20T04:30:13;21.37;;;14.07;;
11829;SDS011;5972;42.134;24.718;2023-12-20T04:32:40;21.60;;;14.43;;
11829;SDS011;5972;42.134;24.718;2023-12-20T04:35:07;22.63;;;15.07;;
11829;SDS011;5972;42.134;24.718;2023-12-20T04:37:34;24.93;;;15.83;;
11829;SDS011;5972;42.134;24.718;2023-12-20T04:40:03;28.50;;;19.17;;
11829;SDS011;5972;42.134;24.718;2023-12-20T04:42:32;26.77;;;16.10;;
11829;SDS011;5972;42.134;24.718;2023-12-20T04:44:59;25.73;;;17.00;;
11829;SDS011;5972;42.134;24.718;2023-12-20T04:47:26;34.13;;;20.03;;
11829;SDS011;5972;42.134;24.718;2023-12-20T04:49:53;36.63;;;21.00;;
11829;SDS011;5972;42.134;24.718;2023-12-20T04:52:20;32.13;;;20.17;;
11829;SDS011;5972;42.134;24.718;2023-12-20T04:54:47;30.33;;;19.07;;
11829;SDS011;5972;42.134;24.718;2023-12-20T04:57:16;28.53;;;19.27;;
11829;SDS011;5972;42.134;24.718;2023-12-20T04:59:43;30.30;;;18.70;;
11829;SDS011;5972;42.134;24.718;2023-12-20T05:02:10;32.07;;;19.10;;
11829;SDS011;5972;42.134;24.718;2023-12-20T05:04:37;27.57;;;18.20;;
11829;SDS011;5972;42.134;24.718;2023-12-20T05:07:04;26.50;;;18.07;;
11829;SDS011;5972;42.134;24.718;2023-12-20T05:09:31;26.67;;;17.90;;
11829;SDS011;5972;42.134;24.718;2023-12-20T05:11:58;24.33;;;17.40;;
11829;SDS011;5972;42.134;24.718;2023-12-20T05:14:27;25.63;;;18.20;;
11829;SDS011;5972;42.134;24.718;2023-12-20T05:16:54;30.80;;;19.00;;
11829;SDS011;5972;42.134;24.718;2023-12-20T05:19:21;24.67;;;17.67;;
11829;SDS011;5972;42.134;24.718;2023-12-20T05:21:49;27.10;;;18.47;;
11829;SDS011;5972;42.134;24.718;2023-12-20T05:24:16;26.73;;;18.07;;
11829;SDS011;5972;42.134;24.718;2023-12-20T05:26:43;26.70;;;18.43;;
11829;SDS011;5972;42.134;24.718;2023-12-20T05:29:10;24.50;;;18.07;;
11829;SDS011;5972;42.134;24.718;2023-12-20T05:31:38;27.77;;;18.00;;
11829;SDS011;5972;42.134;24.718;2023-12-20T05:34:05;25.67;;;18.67;;
11829;SDS011;5972;42.134;24.718;2023-12-20T05:36:33;26.23;;;18.57;;
11829;SDS011;5972;42.134;24.718;2023-12-20T05:39:00;28.87;;;18.80;;
11829;SDS011;5972;42.134;24.718;2023-12-20T05:41:28;27.00;;;19.07;;
11829;SDS011;5972;42.134;24.718;2023-12-20T05:43:55;26.07;;;19.03;;
11829;SDS011;5972;42.134;24.718;2023-12-20T05:46:23;28.17;;;20.17;;
11829;SDS011;5972;42.134;24.718;2023-12-20T05:48:52;25.70;;;17.97;;
11829;SDS011;5972;42.134;24.718;2023-12-20T05:51:19;24.63;;;17.40;;
11829;SDS011;5972;42.134;24.718;2023-12-20T05:53:46;28.73;;;18.97;;
11829;SDS011;5972;42.134;24.718;2023-12-20T05:56:15;25.67;;;17.77;;
11829;SDS011;5972;42.134;24.718;2023-12-20T05:58:41;26.07;;;18.10;;
11829;SDS011;5972;42.134;24.718;2023-12-20T06:01:08;26.53;;;18.27;;
11829;SDS011;5972;42.134;24.718;2023-12-20T06:03:35;24.13;;;16.93;;
11829;SDS011;5972;42.134;24.718;2023-12-20T06:06:06;27.73;;;16.80;;
11829;SDS011;5972;42.134;24.718;2023-12-20T06:08:33;24.10;;;16.47;;
11829;SDS011;5972;42.134;24.718;2023-12-20T06:11:00;26.50;;;18.77;;
11829;SDS011;5972;42.134;24.718;2023-12-20T06:13:27;26.00;;;17.47;;
11829;SDS011;5972;42.134;24.718;2023-12-20T06:15:54;24.97;;;17.67;;
11829;SDS011;5972;42.134;24.718;2023-12-20T06:18:21;27.87;;;17.30;;
11829;SDS011;5972;42.134;24.718;2023-12-20T06:20:49;23.67;;;17.90;;
11829;SDS011;5972;42.134;24.718;2023-12-20T06:23:18;26.27;;;17.20;;
11829;SDS011;5972;42.134;24.718;2023-12-20T06:25:45;25.93;;;17.67;;
11829;SDS011;5972;42.134;24.718;2023-12-20T06:28:12;25.30;;;17.93;;
11829;SDS011;5972;42.134;24.718;2023-12-20T06:30:40;25.10;;;16.90;;
11829;SDS011;5972;42.134;24.718;2023-12-20T06:33:07;23.17;;;17.37;;
11829;SDS011;5972;42.134;24.718;2023-12-20T06:35:35;24.17;;;16.33;;
11829;SDS011;5972;42.134;24.718;2023-12-20T06:38:02;21.83;;;16.27;;
11829;SDS011;5972;42.134;24.718;2023-12-20T06:40:31;22.83;;;16.47;;
11829;SDS011;5972;42.134;24.718;2023-12-20T06:42:59;26.60;;;16.37;;
11829;SDS011;5972;42.134;24.718;2023-12-20T06:45:26;24.63;;;16.63;;
11829;SDS011;5972;42.134;24.718;2023-12-20T06:47:53;21.83;;;15.57;;
11829;SDS011;5972;42.134;24.718;2023-12-20T06:50:20;25.33;;;16.17;;
11829;SDS011;5972;42.134;24.718;2023-12-20T06:52:47;23.47;;;15.20;;
11829;SDS011;5972;42.134;24.718;2023-12-20T06:55:14;23.17;;;15.47;;
11829;SDS011;5972;42.134;24.718;2023-12-20T06:57:44;21.43;;;14.97;;
11829;SDS011;5972;42.134;24.718;2023-12-20T07:00:11;19.70;;;14.60;;
11829;SDS011;5972;42.134;24.718;2023-12-20T07:02:38;21.00;;;15.20;;
11829;SDS011;5972;42.134;24.718;2023-12-20T07:05:06;21.23;;;14.23;;
11829;SDS011;5972;42.134;24.718;2023-12-20T07:07:33;23.13;;;15.67;;
11829;SDS011;5972;42.134;24.718;2023-12-20T07:10:00;21.70;;;14.93;;
11829;SDS011;5972;42.134;24.718;2023-12-20T07:12:27;21.30;;;14.90;;
11829;SDS011;5972;42.134;24.718;2023-12-20T07:14:56;16.10;;;12.10;;
11829;SDS011;5972;42.134;24.718;2023-12-20T07:17:23;18.60;;;13.30;;
11829;SDS011;5972;42.134;24.718;2023-12-20T07:19:49;22.33;;;15.97;;
11829;SDS011;5972;42.134;24.718;2023-12-20T07:22:17;23.30;;;14.57;;
11829;SDS011;5972;42.134;24.718;2023-12-20T07:24:43;19.87;;;14.20;;
11829;SDS011;5972;42.134;24.718;2023-12-20T07:27:11;19.60;;;14.03;;
11829;SDS011;5972;42.134;24.718;2023-12-20T07:29:38;17.50;;;13.87;;
11829;SDS011;5972;42.134;24.718;2023-12-20T07:32:06;16.40;;;13.43;;
11829;SDS011;5972;42.134;24.718;2023-12-20T07:34:33;15.70;;;12.27;;
11829;SDS011;5972;42.134;24.718;2023-12-20T07:37:00;16.63;;;11.60;;
11829;SDS011;5972;42.134;24.718;2023-12-20T07:39:27;13.35;;;11.38;;
11829;SDS011;5972;42.134;24.718;2023-12-20T07:41:54;15.88;;;11.57;;
11829;SDS011;5972;42.134;24.718;2023-12-20T07:44:21;14.23;;;11.57;;
11829;SDS011;5972;42.134;24.718;2023-12-20T07:46:48;14.43;;;11.23;;
11829;SDS011;5972;42.134;24.718;2023-12-20T07:49:16;12.82;;;10.25;;
11829;SDS011;5972;42.134;24.718;2023-12-20T07:51:45;12.90;;;10.50;;
11829;SDS011;5972;42.134;24.718;2023-12-20T07:54:12;15.57;;;11.38;;
11829;SDS011;5972;42.134;24.718;2023-12-20T07:56:39;13.57;;;11.45;;
11829;SDS011;5972;42.134;24.718;2023-12-20T07:59:06;14.32;;;11.35;;
11829;SDS011;5972;42.134;24.718;2023-12-20T08:01:33;12.55;;;10.90;;
11829;SDS011;5972;42.134;24.718;2023-12-20T08:04:00;15.48;;;12.40;;
11829;SDS011;5972;42.134;24.718;2023-12-20T08:06:28;14.85;;;12.60;;
11829;SDS011;5972;42.134;24.718;2023-12-20T08:08:55;14.50;;;11.43;;
11829;SDS011;5972;42.134;24.718;2023-12-20T08:11:22;14.10;;;12.02;;
11829;SDS011;5972;42.134;24.718;2023-12-20T08:13:49;16.15;;;14.15;;
11829;SDS011;5972;42.134;24.718;2023-12-20T08:16:17;14.98;;;13.38;;
11829;SDS011;5972;42.134;24.718;2023-12-20T08:18:44;15.50;;;13.18;;
11829;SDS011;5972;42.134;24.718;2023-12-20T08:21:11;14.57;;;12.27;;
11829;SDS011;5972;42.134;24.718;2023-12-20T08:23:39;17.08;;;12.50;;
11829;SDS011;5972;42.134;24.718;2023-12-20T08:26:06;14.35;;;11.38;;
11829;SDS011;5972;42.134;24.718;2023-12-20T08:28:34;16.00;;;12.00;;
11829;SDS011;5972;42.134;24.718;2023-12-20T08:31:03;15.55;;;11.50;;
11829;SDS011;5972;42.134;24.718;2023-12-20T08:33:30;14.48;;;12.57;;
11829;SDS011;5972;42.134;24.718;2023-12-20T08:35:57;15.93;;;12.55;;
11829;SDS011;5972;42.134;24.718;2023-12-20T08:38:24;13.50;;;12.10;;
11829;SDS011;5972;42.134;24.718;2023-12-20T08:40:52;20.92;;;12.27;;
11829;SDS011;5972;42.134;24.718;2023-12-20T08:43:19;16.30;;;11.73;;
11829;SDS011;5972;42.134;24.718;2023-12-20T08:45:46;16.63;;;13.38;;
11829;SDS011;5972;42.134;24.718;2023-12-20T08:48:13;17.60;;;13.27;;
11829;SDS011;5972;42.134;24.718;2023-12-20T08:50:40;15.85;;;12.73;;
11829;SDS011;5972;42.134;24.718;2023-12-20T08:53:07;19.85;;;14.23;;
11829;SDS011;5972;42.134;24.718;2023-12-20T08:55:34;17.20;;;14.27;;
11829;SDS011;5972;42.134;24.718;2023-12-20T08:58:03;19.58;;;13.95;;
11829;SDS011;5972;42.134;24.718;2023-12-20T09:00:31;18.25;;;13.48;;
11829;SDS011;5972;42.134;24.718;2023-12-20T09:02:58;14.40;;;11.70;;
11829;SDS011;5972;42.134;24.718;2023-12-20T09:05:25;14.30;;;11.32;;
11829;SDS011;5972;42.134;24.718;2023-12-20T09:07:53;16.50;;;10.75;;
11829;SDS011;5972;42.134;24.718;2023-12-20T09:10:20;15.48;;;12.23;;
11829;SDS011;5972;42.134;24.718;2023-12-20T09:12:48;12.88;;;11.02;;
11829;SDS011;5972;42.134;24.718;2023-12-20T09:15:17;11.07;;;9.20;;
11829;SDS011;5972;42.134;24.718;2023-12-20T09:17:44;12.57;;;10.30;;
11829;SDS011;5972;42.134;24.718;2023-12-20T09:20:11;13.10;;;10.18;;
11829;SDS011;5972;42.134;24.718;2023-12-20T09:22:38;13.80;;;10.90;;
11829;SDS011;5972;42.134;24.718;2023-12-20T09:25:07;16.13;;;10.60;;
11829;SDS011;5972;42.134;24.718;2023-12-20T09:27:35;11.65;;;9.45;;
11829;SDS011;5972;42.134;24.718;2023-12-20T09:30:02;14.82;;;10.68;;
11829;SDS011;5972;42.134;24.718;2023-12-20T09:32:31;11.38;;;9.23;;
11829;SDS011;5972;42.134;24.718;2023-12-20T09:34:59;11.95;;;9.45;;
11829;SDS011;5972;42.134;24.718;2023-12-20T09:37:26;13.80;;;9.13;;
11829;SDS011;5972;42.134;24.718;2023-12-20T09:39:54;9.48;;;8.30;;
11829;SDS011;5972;42.134;24.718;2023-12-20T09:42:21;10.75;;;9.02;;
11829;SDS011;5972;42.134;24.718;2023-12-20T09:44:55;11.10;;;8.93;;
11829;SDS011;5972;42.134;24.718;2023-12-20T09:47:28;10.13;;;8.77;;
11829;SDS011;5972;42.134;24.718;2023-12-20T09:49:57;10.13;;;7.75;;
11829;SDS011;5972;42.134;24.718;2023-12-20T09:52:24;11.32;;;9.07;;
11829;SDS011;5972;42.134;24.718;2023-12-20T09:54:51;10.65;;;9.10;;
11829;SDS011;5972;42.134;24.718;2023-12-20T09:57:20;10.10;;;8.90;;
11829;SDS011;5972;42.134;24.718;2023-12-20T09:59:47;10.57;;;9.07;;
11829;SDS011;5972;42.134;24.718;2023-12-20T10:02:14;10.30;;;9.13;;
11829;SDS011;5972;42.134;24.718;2023-12-20T10:04:48;14.07;;;9.55;;
11829;SDS011;5972;42.134;24.718;2023-12-20T10:07:16;11.55;;;10.18;;
11829;SDS011;5972;42.134;24.718;2023-12-20T10:09:44;12.82;;;11.10;;
11829;SDS011;5972;42.134;24.718;2023-12-20T10:12:11;12.40;;;11.10;;
11829;SDS011;5972;42.134;24.718;2023-12-20T10:14:38;13.02;;;11.35;;
11829;SDS011;5972;42.134;24.718;2023-12-20T10:17:06;11.68;;;10.48;;
11829;SDS011;5972;42.134;24.718;2023-12-20T10:19:33;11.23;;;9.88;;
11829;SDS011;5972;42.134;24.718;2023-12-20T10:22:00;12.80;;;11.10;;
11829;SDS011;5972;42.134;24.718;2023-12-20T10:24:29;11.88;;;10.68;;
11829;SDS011;5972;42.134;24.718;2023-12-20T10:27:03;13.20;;;10.65;;
11829;SDS011;5972;42.134;24.718;2023-12-20T10:29:33;13.98;;;10.98;;
11829;SDS011;5972;42.134;24.718;2023-12-20T10:32:12;13.60;;;11.35;;
11829;SDS011;5972;42.134;24.718;2023-12-20T10:34:48;14.68;;;10.98;;
11829;SDS011;5972;42.134;24.718;2023-12-20T10:37:15;15.10;;;11.95;;
11829;SDS011;5972;42.134;24.718;2023-12-20T10:39:44;19.33;;;12.95;;
11829;SDS011;5972;42.134;24.718;2023-12-20T10:42:16;18.10;;;13.65;;
11829;SDS011;5972;42.134;24.718;2023-12-20T10:44:43;17.13;;;11.90;;
11829;SDS011;5972;42.134;24.718;2023-12-20T10:47:10;16.17;;;12.20;;
11829;SDS011;5972;42.134;24.718;2023-12-20T10:49:39;12.82;;;11.38;;
11829;SDS011;5972;42.134;24.718;2023-12-20T10:52:06;15.05;;;11.18;;
11829;SDS011;5972;42.134;24.718;2023-12-20T10:54:35;16.50;;;11.68;;
11829;SDS011;5972;42.134;24.718;2023-12-20T10:57:04;13.80;;;11.95;;
11829;SDS011;5972;42.134;24.718;2023-12-20T10:59:32;11.93;;;10.48;;
11829;SDS011;5972;42.134;24.718;2023-12-20T11:02:02;18.67;;;11.13;;
11829;SDS011;5972;42.134;24.718;2023-12-20T11:04:33;14.48;;;10.70;;
11829;SDS011;5972;42.134;24.718;2023-12-20T11:07:07;14.25;;;10.68;;
11829;SDS011;5972;42.134;24.718;2023-12-20T11:09:46;19.13;;;11.45;;
11829;SDS011;5972;42.134;24.718;2023-12-20T11:12:25;15.05;;;11.32;;
11829;SDS011;5972;42.134;24.718;2023-12-20T11:14:58;14.88;;;12.15;;
11829;SDS011;5972;42.134;24.718;2023-12-20T11:17:29;21.60;;;12.10;;
11829;SDS011;5972;42.134;24.718;2023-12-20T11:20:04;15.35;;;11.55;;
11829;SDS011;5972;42.134;24.718;2023-12-20T11:22:35;22.35;;;12.00;;
11829;SDS011;5972;42.134;24.718;2023-12-20T11:25:03;18.75;;;12.20;;
11829;SDS011;5972;42.134;24.718;2023-12-20T11:27:34;16.90;;;12.38;;
11829;SDS011;5972;42.134;24.718;2023-12-20T11:30:02;20.98;;;12.48;;
11829;SDS011;5972;42.134;24.718;2023-12-20T11:32:33;16.40;;;12.75;;
11829;SDS011;5972;42.134;24.718;2023-12-20T11:35:00;18.38;;;11.52;;
11829;SDS011;5972;42.134;24.718;2023-12-20T11:37:42;17.35;;;12.35;;
11829;SDS011;5972;42.134;24.718;2023-12-20T11:40:11;15.10;;;11.95;;
11829;SDS011;5972;42.134;24.718;2023-12-20T11:42:41;13.98;;;12.10;;
11829;SDS011;5972;42.134;24.718;2023-12-20T11:45:10;16.38;;;11.80;;
11829;SDS011;5972;42.134;24.718;2023-12-20T11:47:40;19.45;;;12.32;;
11829;SDS011;5972;42.134;24.718;2023-12-20T11:50:08;19.77;;;12.25;;
11829;SDS011;5972;42.134;24.718;2023-12-20T11:52:35;22.30;;;13.15;;
11829;SDS011;5972;42.134;24.718;2023-12-20T11:55:03;20.80;;;13.00;;
11829;SDS011;5972;42.134;24.718;2023-12-20T11:57:30;22.15;;;11.68;;
11829;SDS011;5972;42.134;24.718;2023-12-20T11:59:59;17.13;;;13.07;;
11829;SDS011;5972;42.134;24.718;2023-12-20T12:02:26;18.77;;;11.98;;
11829;SDS011;5972;42.134;24.718;2023-12-20T12:04:53;20.25;;;12.30;;
11829;SDS011;5972;42.134;24.718;2023-12-20T12:07:20;18.02;;;13.13;;
11829;SDS011;5972;42.134;24.718;2023-12-20T12:09:47;21.10;;;12.98;;
11829;SDS011;5972;42.134;24.718;2023-12-20T12:12:14;20.90;;;11.63;;
11829;SDS011;5972;42.134;24.718;2023-12-20T12:14:42;19.08;;;11.90;;
11829;SDS011;5972;42.134;24.718;2023-12-20T12:17:11;21.30;;;12.20;;
11829;SDS011;5972;42.134;24.718;2023-12-20T12:19:39;28.65;;;12.80;;
11829;SDS011;5972;42.134;24.718;2023-12-20T12:22:06;24.55;;;12.05;;
11829;SDS011;5972;42.134;24.718;2023-12-20T12:24:33;22.45;;;11.60;;
11829;SDS011;5972;42.134;24.718;2023-12-20T12:27:00;28.33;;;12.23;;
11829;SDS011;5972;42.134;24.718;2023-12-20T12:29:27;27.40;;;15.40;;
11829;SDS011;5972;42.134;24.718;2023-12-20T12:31:55;21.27;;;13.70;;
11829;SDS011;5972;42.134;24.718;2023-12-20T12:34:23;20.27;;;11.68;;
11829;SDS011;5972;42.134;24.718;2023-12-20T12:36:51;17.45;;;12.32;;
11829;SDS011;5972;42.134;24.718;2023-12-20T12:39:19;23.50;;;12.60;;
11829;SDS011;5972;42.134;24.718;2023-12-20T12:41:46;24.27;;;13.52;;
11829;SDS011;5972;42.134;24.718;2023-12-20T12:44:13;29.58;;;13.32;;
11829;SDS011;5972;42.134;24.718;2023-12-20T12:46:40;32.03;;;13.90;;
11829;SDS011;5972;42.134;24.718;2023-12-20T12:49:07;19.05;;;13.48;;
11829;SDS011;5972;42.134;24.718;2023-12-20T12:51:36;22.25;;;14.30;;
11829;SDS011;5972;42.134;24.718;2023-12-20T12:54:03;26.60;;;15.30;;
11829;SDS011;5972;42.134;24.718;2023-12-20T12:56:30;27.25;;;14.45;;
11829;SDS011;5972;42.134;24.718;2023-12-20T12:58:57;23.05;;;14.07;;
11829;SDS011;5972;42.134;24.718;2023-12-20T13:01:25;24.70;;;13.60;;
11829;SDS011;5972;42.134;24.718;2023-12-20T13:03:51;23.85;;;13.55;;
11829;SDS011;5972;42.134;24.718;2023-12-20T13:06:19;21.73;;;13.50;;
11829;SDS011;5972;42.134;24.718;2023-12-20T13:08:48;30.85;;;14.15;;
11829;SDS011;5972;42.134;24.718;2023-12-20T13:11:15;24.85;;;13.60;;
11829;SDS011;5972;42.134;24.718;2023-12-20T13:13:42;21.98;;;14.23;;
11829;SDS011;5972;42.134;24.718;2023-12-20T13:16:09;31.77;;;14.63;;
11829;SDS011;5972;42.134;24.718;2023-12-20T13:18:36;24.50;;;14.77;;
11829;SDS011;5972;42.134;24.718;2023-12-20T13:21:07;23.50;;;13.65;;
11829;SDS011;5972;42.134;24.718;2023-12-20T13:23:34;25.95;;;13.60;;
11829;SDS011;5972;42.134;24.718;2023-12-20T13:26:03;22.20;;;14.10;;
11829;SDS011;5972;42.134;24.718;2023-12-20T13:28:30;23.27;;;14.48;;
11829;SDS011;5972;42.134;24.718;2023-12-20T13:30:57;22.52;;;15.30;;
11829;SDS011;5972;42.134;24.718;2023-12-20T13:33:24;23.63;;;15.10;;
11829;SDS011;5972;42.134;24.718;2023-12-20T13:35:51;26.67;;;15.20;;
11829;SDS011;5972;42.134;24.718;2023-12-20T13:38:18;21.90;;;14.57;;
11829;SDS011;5972;42.134;24.718;2023-12-20T13:40:45;33.22;;;15.52;;
11829;SDS011;5972;42.134;24.718;2023-12-20T13:43:13;24.08;;;15.77;;
11829;SDS011;5972;42.134;24.718;2023-12-20T13:45:45;24.13;;;15.55;;
11829;SDS011;5972;42.134;24.718;2023-12-20T13:48:12;23.98;;;15.13;;
11829;SDS011;5972;42.134;24.718;2023-12-20T13:50:39;24.70;;;15.48;;
11829;SDS011;5972;42.134;24.718;2023-12-20T13:53:06;30.50;;;15.68;;
11829;SDS011;5972;42.134;24.718;2023-12-20T13:55:33;23.45;;;16.48;;
11829;SDS011;5972;42.134;24.718;2023-12-20T13:58:00;24.67;;;17.13;;
11829;SDS011;5972;42.134;24.718;2023-12-20T14:00:29;32.58;;;17.45;;
11829;SDS011;5972;42.134;24.718;2023-12-20T14:02:56;26.23;;;17.63;;
11829;SDS011;5972;42.134;24.718;2023-12-20T14:05:24;35.88;;;20.38;;
11829;SDS011;5972;42.134;24.718;2023-12-20T14:07:52;29.42;;;18.95;;
11829;SDS011;5972;42.134;24.718;2023-12-20T14:10:19;40.30;;;21.13;;
11829;SDS011;5972;42.134;24.718;2023-12-20T14:12:45;32.33;;;21.77;;
11829;SDS011;5972;42.134;24.718;2023-12-20T14:15:12;36.22;;;20.52;;
11829;SDS011;5972;42.134;24.718;2023-12-20T14:17:41;34.20;;;20.33;;
11829;SDS011;5972;42.134;24.718;2023-12-20T14:20:08;48.25;;;27.42;;
11829;SDS011;5972;42.134;24.718;2023-12-20T14:22:37;60.72;;;32.92;;
11829;SDS011;5972;42.134;24.718;2023-12-20T14:25:10;44.58;;;27.20;;
11829;SDS011;5972;42.134;24.718;2023-12-20T14:27:37;43.50;;;26.02;;